sensor_id;sensor_type;location;lat;lon;timestamp;temperature;humidity
43185;DHT22;28803;52.308;19.096;2022-09-09T00:02:21;11.60;99.90
43185;DHT22;28803;52.308;19.096;2022-09-09T00:05:04;11.60;99.90
43185;DHT22;28803;52.308;19.096;2022-09-09T00:07:45;11.60;99.90
43185;DHT22;28803;52.308;19.096;2022-09-09T00:16:13;11.70;99.90
43185;DHT22;28803;52.308;19.096;2022-09-09T00:19:08;11.70;99.90
43185;DHT22;28803;52.308;19.096;2022-09-09T00:27:04;11.70;99.90
43185;DHT22;28803;52.308;19.096;2022-09-09T00:32:36;11.70;99.90
43185;DHT22;28803;52.308;19.096;2022-09-09T00:37:39;11.70;99.90
43185;DHT22;28803;52.308;19.096;2022-09-09T00:40:33;11.70;99.90
43185;DHT22;28803;52.308;19.096;2022-09-09T00:49:19;11.70;99.90
43185;DHT22;28803;52.308;19.096;2022-09-09T00:55:13;11.80;99.90
43185;DHT22;28803;52.308;19.096;2022-09-09T00:57:42;11.80;99.90
43185;DHT22;28803;52.308;19.096;2022-09-09T01:00:25;11.80;99.90
43185;DHT22;28803;52.308;19.096;2022-09-09T01:07:52;11.80;99.90
43185;DHT22;28803;52.308;19.096;2022-09-09T01:10:48;11.80;99.90
43185;DHT22;28803;52.308;19.096;2022-09-09T01:13:24;11.80;99.90
43185;DHT22;28803;52.308;19.096;2022-09-09T01:15:53;11.90;99.90
43185;DHT22;28803;52.308;19.096;2022-09-09T01:18:30;11.90;99.90
43185;DHT22;28803;52.308;19.096;2022-09-09T01:26:42;11.90;99.90
43185;DHT22;28803;52.308;19.096;2022-09-09T01:29:12;11.90;99.90
43185;DHT22;28803;52.308;19.096;2022-09-09T01:31:58;11.90;99.90
43185;DHT22;28803;52.308;19.096;2022-09-09T01:34:32;11.90;99.90
43185;DHT22;28803;52.308;19.096;2022-09-09T01:37:06;11.90;99.90
43185;DHT22;28803;52.308;19.096;2022-09-09T01:39:34;12.00;99.90
43185;DHT22;28803;52.308;19.096;2022-09-09T01:42:04;12.00;99.90
43185;DHT22;28803;52.308;19.096;2022-09-09T01:44:32;12.00;99.90
43185;DHT22;28803;52.308;19.096;2022-09-09T01:46:59;12.00;99.90
43185;DHT22;28803;52.308;19.096;2022-09-09T01:49:26;11.90;99.90
43185;DHT22;28803;52.308;19.096;2022-09-09T01:51:55;11.90;99.90
43185;DHT22;28803;52.308;19.096;2022-09-09T01:54:27;11.90;99.90
43185;DHT22;28803;52.308;19.096;2022-09-09T01:57:17;11.90;99.90
43185;DHT22;28803;52.308;19.096;2022-09-09T01:59:59;11.90;99.90
43185;DHT22;28803;52.308;19.096;2022-09-09T02:03:06;11.90;99.90
43185;DHT22;28803;52.308;19.096;2022-09-09T02:05:48;11.90;99.90
43185;DHT22;28803;52.308;19.096;2022-09-09T02:08:38;11.90;99.90
43185;DHT22;28803;52.308;19.096;2022-09-09T02:11:16;11.90;99.90
43185;DHT22;28803;52.308;19.096;2022-09-09T02:13:46;11.90;99.90
43185;DHT22;28803;52.308;19.096;2022-09-09T02:16:38;11.90;99.90
43185;DHT22;28803;52.308;19.096;2022-09-09T02:19:24;11.90;99.90
43185;DHT22;28803;52.308;19.096;2022-09-09T02:21:55;11.90;99.90
43185;DHT22;28803;52.308;19.096;2022-09-09T02:24:23;11.90;99.90
43185;DHT22;28803;52.308;19.096;2022-09-09T02:26:53;11.90;99.90
43185;DHT22;28803;52.308;19.096;2022-09-09T02:29:34;11.90;99.90
43185;DHT22;28803;52.308;19.096;2022-09-09T02:32:05;11.90;99.90
43185;DHT22;28803;52.308;19.096;2022-09-09T02:34:36;11.90;99.90
43185;DHT22;28803;52.308;19.096;2022-09-09T02:37:06;11.90;99.90
43185;DHT22;28803;52.308;19.096;2022-09-09T02:39:34;11.90;99.90
43185;DHT22;28803;52.308;19.096;2022-09-09T02:42:03;11.90;99.90
43185;DHT22;28803;52.308;19.096;2022-09-09T02:44:31;11.90;99.90
43185;DHT22;28803;52.308;19.096;2022-09-09T02:47:21;11.90;99.90
43185;DHT22;28803;52.308;19.096;2022-09-09T02:52:21;11.90;99.90
43185;DHT22;28803;52.308;19.096;2022-09-09T02:54:54;11.90;99.90
43185;DHT22;28803;52.308;19.096;2022-09-09T02:57:27;11.90;99.90
43185;DHT22;28803;52.308;19.096;2022-09-09T02:59:59;11.90;99.90
43185;DHT22;28803;52.308;19.096;2022-09-09T03:02:27;11.90;99.90
43185;DHT22;28803;52.308;19.096;2022-09-09T03:04:54;12.00;99.90
43185;DHT22;28803;52.308;19.096;2022-09-09T03:07:22;12.00;99.90
43185;DHT22;28803;52.308;19.096;2022-09-09T03:09:49;12.00;99.90
43185;DHT22;28803;52.308;19.096;2022-09-09T03:12:16;12.00;99.90
43185;DHT22;28803;52.308;19.096;2022-09-09T03:14:43;12.00;99.90
43185;DHT22;28803;52.308;19.096;2022-09-09T03:17:12;12.00;99.90
43185;DHT22;28803;52.308;19.096;2022-09-09T03:19:39;12.00;99.90
43185;DHT22;28803;52.308;19.096;2022-09-09T03:22:09;12.10;99.90
43185;DHT22;28803;52.308;19.096;2022-09-09T03:24:37;12.10;99.90
43185;DHT22;28803;52.308;19.096;2022-09-09T03:27:03;12.20;99.90
43185;DHT22;28803;52.308;19.096;2022-09-09T03:29:30;12.10;99.90
43185;DHT22;28803;52.308;19.096;2022-09-09T03:31:57;12.20;99.90
43185;DHT22;28803;52.308;19.096;2022-09-09T03:34:24;12.10;99.90
43185;DHT22;28803;52.308;19.096;2022-09-09T03:36:51;12.20;99.90
43185;DHT22;28803;52.308;19.096;2022-09-09T03:39:18;12.20;99.90
43185;DHT22;28803;52.308;19.096;2022-09-09T03:41:45;12.20;99.90
43185;DHT22;28803;52.308;19.096;2022-09-09T03:44:15;12.20;99.90
43185;DHT22;28803;52.308;19.096;2022-09-09T03:46:42;12.20;99.90
43185;DHT22;28803;52.308;19.096;2022-09-09T03:49:09;12.20;99.90
43185;DHT22;28803;52.308;19.096;2022-09-09T03:51:37;12.30;99.90
43185;DHT22;28803;52.308;19.096;2022-09-09T03:54:05;12.20;99.90
43185;DHT22;28803;52.308;19.096;2022-09-09T03:56:34;12.20;99.90
43185;DHT22;28803;52.308;19.096;2022-09-09T03:59:03;12.20;99.90
43185;DHT22;28803;52.308;19.096;2022-09-09T04:01:30;12.20;99.90
43185;DHT22;28803;52.308;19.096;2022-09-09T04:03:57;12.20;99.90
43185;DHT22;28803;52.308;19.096;2022-09-09T04:06:25;12.20;99.90
43185;DHT22;28803;52.308;19.096;2022-09-09T04:08:52;12.20;99.90
43185;DHT22;28803;52.308;19.096;2022-09-09T04:11:19;12.20;99.90
43185;DHT22;28803;52.308;19.096;2022-09-09T04:13:46;12.20;99.90
43185;DHT22;28803;52.308;19.096;2022-09-09T04:16:14;12.20;99.90
43185;DHT22;28803;52.308;19.096;2022-09-09T04:18:41;12.20;99.90
43185;DHT22;28803;52.308;19.096;2022-09-09T04:21:09;12.20;99.90
43185;DHT22;28803;52.308;19.096;2022-09-09T04:23:37;12.30;99.90
43185;DHT22;28803;52.308;19.096;2022-09-09T04:26:05;12.30;99.90
43185;DHT22;28803;52.308;19.096;2022-09-09T04:28:36;12.30;99.90
43185;DHT22;28803;52.308;19.096;2022-09-09T04:31:05;12.30;99.90
43185;DHT22;28803;52.308;19.096;2022-09-09T04:33:32;12.30;99.90
43185;DHT22;28803;52.308;19.096;2022-09-09T04:36:05;12.40;99.90
43185;DHT22;28803;52.308;19.096;2022-09-09T04:38:32;12.40;99.90
43185;DHT22;28803;52.308;19.096;2022-09-09T04:40:59;12.40;99.90
43185;DHT22;28803;52.308;19.096;2022-09-09T04:43:26;12.40;99.90
43185;DHT22;28803;52.308;19.096;2022-09-09T04:45:53;12.50;99.90
43185;DHT22;28803;52.308;19.096;2022-09-09T04:48:21;12.50;99.90
43185;DHT22;28803;52.308;19.096;2022-09-09T04:51:02;12.50;99.90
43185;DHT22;28803;52.308;19.096;2022-09-09T04:53:32;12.60;99.90
43185;DHT22;28803;52.308;19.096;2022-09-09T04:56:05;12.60;99.90
43185;DHT22;28803;52.308;19.096;2022-09-09T04:58:33;12.60;99.90
43185;DHT22;28803;52.308;19.096;2022-09-09T05:01:09;12.70;99.90
43185;DHT22;28803;52.308;19.096;2022-09-09T05:03:37;12.80;99.90
43185;DHT22;28803;52.308;19.096;2022-09-09T05:06:06;12.90;99.90
43185;DHT22;28803;52.308;19.096;2022-09-09T05:08:38;12.90;99.90
43185;DHT22;28803;52.308;19.096;2022-09-09T05:11:23;13.00;99.90
43185;DHT22;28803;52.308;19.096;2022-09-09T05:13:51;13.10;99.90
43185;DHT22;28803;52.308;19.096;2022-09-09T05:16:20;13.20;99.90
43185;DHT22;28803;52.308;19.096;2022-09-09T05:18:47;13.20;99.90
43185;DHT22;28803;52.308;19.096;2022-09-09T05:21:16;13.30;99.90
43185;DHT22;28803;52.308;19.096;2022-09-09T05:23:45;13.30;99.90
43185;DHT22;28803;52.308;19.096;2022-09-09T05:26:18;13.40;99.90
43185;DHT22;28803;52.308;19.096;2022-09-09T05:28:46;13.40;99.90
43185;DHT22;28803;52.308;19.096;2022-09-09T05:31:16;13.40;99.90
43185;DHT22;28803;52.308;19.096;2022-09-09T05:33:44;13.50;99.90
43185;DHT22;28803;52.308;19.096;2022-09-09T05:36:14;13.50;99.90
43185;DHT22;28803;52.308;19.096;2022-09-09T05:38:42;13.60;99.90
43185;DHT22;28803;52.308;19.096;2022-09-09T05:41:11;13.70;99.90
43185;DHT22;28803;52.308;19.096;2022-09-09T05:43:38;13.70;99.90
43185;DHT22;28803;52.308;19.096;2022-09-09T05:46:11;13.70;99.90
43185;DHT22;28803;52.308;19.096;2022-09-09T05:48:39;13.70;99.90
43185;DHT22;28803;52.308;19.096;2022-09-09T05:51:08;13.80;99.90
43185;DHT22;28803;52.308;19.096;2022-09-09T05:53:36;13.90;99.90
43185;DHT22;28803;52.308;19.096;2022-09-09T05:56:14;13.90;99.90
43185;DHT22;28803;52.308;19.096;2022-09-09T05:58:42;13.90;99.90
43185;DHT22;28803;52.308;19.096;2022-09-09T06:01:13;14.10;99.90
43185;DHT22;28803;52.308;19.096;2022-09-09T06:03:42;14.10;99.90
43185;DHT22;28803;52.308;19.096;2022-09-09T06:06:13;14.20;99.90
43185;DHT22;28803;52.308;19.096;2022-09-09T06:08:42;14.20;99.90
43185;DHT22;28803;52.308;19.096;2022-09-09T06:13:43;14.30;99.90
43185;DHT22;28803;52.308;19.096;2022-09-09T06:16:12;14.30;99.90
43185;DHT22;28803;52.308;19.096;2022-09-09T06:18:40;14.30;99.90
43185;DHT22;28803;52.308;19.096;2022-09-09T06:21:15;14.30;99.90
43185;DHT22;28803;52.308;19.096;2022-09-09T06:23:42;14.50;99.90
43185;DHT22;28803;52.308;19.096;2022-09-09T06:28:41;14.70;99.90
43185;DHT22;28803;52.308;19.096;2022-09-09T06:31:12;14.70;99.90
43185;DHT22;28803;52.308;19.096;2022-09-09T06:33:41;14.70;99.90
43185;DHT22;28803;52.308;19.096;2022-09-09T06:36:15;14.70;99.90
43185;DHT22;28803;52.308;19.096;2022-09-09T06:38:42;14.70;99.90
43185;DHT22;28803;52.308;19.096;2022-09-09T06:41:11;14.80;99.90
43185;DHT22;28803;52.308;19.096;2022-09-09T06:43:39;14.80;99.90
43185;DHT22;28803;52.308;19.096;2022-09-09T06:46:09;14.80;99.90
43185;DHT22;28803;52.308;19.096;2022-09-09T06:48:39;14.90;99.90
43185;DHT22;28803;52.308;19.096;2022-09-09T06:51:19;14.80;99.90
43185;DHT22;28803;52.308;19.096;2022-09-09T06:53:50;14.90;99.90
43185;DHT22;28803;52.308;19.096;2022-09-09T06:56:23;15.00;99.90
43185;DHT22;28803;52.308;19.096;2022-09-09T06:58:52;15.10;99.90
43185;DHT22;28803;52.308;19.096;2022-09-09T07:01:28;15.10;99.90
43185;DHT22;28803;52.308;19.096;2022-09-09T07:03:59;15.30;99.90
43185;DHT22;28803;52.308;19.096;2022-09-09T07:06:31;15.40;99.90
43185;DHT22;28803;52.308;19.096;2022-09-09T07:09:06;15.50;99.90
43185;DHT22;28803;52.308;19.096;2022-09-09T07:11:39;15.60;99.90
43185;DHT22;28803;52.308;19.096;2022-09-09T07:14:06;15.60;99.90
43185;DHT22;28803;52.308;19.096;2022-09-09T07:16:34;15.70;99.90
43185;DHT22;28803;52.308;19.096;2022-09-09T07:19:04;15.70;99.90
43185;DHT22;28803;52.308;19.096;2022-09-09T07:21:33;15.80;99.90
43185;DHT22;28803;52.308;19.096;2022-09-09T07:24:00;16.00;99.90
43185;DHT22;28803;52.308;19.096;2022-09-09T07:26:30;16.10;99.90
43185;DHT22;28803;52.308;19.096;2022-09-09T07:28:58;16.20;99.90
43185;DHT22;28803;52.308;19.096;2022-09-09T07:31:30;16.30;99.90
43185;DHT22;28803;52.308;19.096;2022-09-09T07:33:59;16.50;99.90
43185;DHT22;28803;52.308;19.096;2022-09-09T07:36:35;16.50;99.90
43185;DHT22;28803;52.308;19.096;2022-09-09T07:39:05;16.60;99.90
43185;DHT22;28803;52.308;19.096;2022-09-09T07:41:38;16.80;99.90
43185;DHT22;28803;52.308;19.096;2022-09-09T07:44:14;17.00;99.90
43185;DHT22;28803;52.308;19.096;2022-09-09T07:46:41;17.00;99.90
43185;DHT22;28803;52.308;19.096;2022-09-09T07:49:09;17.10;99.90
43185;DHT22;28803;52.308;19.096;2022-09-09T07:51:43;17.30;99.90
43185;DHT22;28803;52.308;19.096;2022-09-09T07:54:13;17.40;99.90
43185;DHT22;28803;52.308;19.096;2022-09-09T07:56:41;17.60;99.90
43185;DHT22;28803;52.308;19.096;2022-09-09T07:59:09;17.80;99.90
43185;DHT22;28803;52.308;19.096;2022-09-09T08:01:56;18.10;99.90
43185;DHT22;28803;52.308;19.096;2022-09-09T08:04:25;18.20;99.90
43185;DHT22;28803;52.308;19.096;2022-09-09T08:06:55;18.40;99.90
43185;DHT22;28803;52.308;19.096;2022-09-09T08:09:24;18.60;99.90
43185;DHT22;28803;52.308;19.096;2022-09-09T08:11:56;18.70;99.90
43185;DHT22;28803;52.308;19.096;2022-09-09T08:14:25;18.90;99.90
43185;DHT22;28803;52.308;19.096;2022-09-09T08:16:52;18.90;99.90
43185;DHT22;28803;52.308;19.096;2022-09-09T08:19:21;19.10;99.90
43185;DHT22;28803;52.308;19.096;2022-09-09T08:21:48;19.30;99.90
43185;DHT22;28803;52.308;19.096;2022-09-09T08:24:16;19.60;99.90
43185;DHT22;28803;52.308;19.096;2022-09-09T08:26:46;19.80;99.90
43185;DHT22;28803;52.308;19.096;2022-09-09T08:29:14;19.90;99.90
43185;DHT22;28803;52.308;19.096;2022-09-09T08:31:44;19.80;99.90
43185;DHT22;28803;52.308;19.096;2022-09-09T08:34:12;19.80;99.90
43185;DHT22;28803;52.308;19.096;2022-09-09T08:36:42;20.00;99.90
43185;DHT22;28803;52.308;19.096;2022-09-09T08:39:11;19.90;99.90
43185;DHT22;28803;52.308;19.096;2022-09-09T08:45:23;19.90;99.90
43185;DHT22;28803;52.308;19.096;2022-09-09T08:50:39;19.80;99.90
43185;DHT22;28803;52.308;19.096;2022-09-09T08:58:29;19.50;99.90
43185;DHT22;28803;52.308;19.096;2022-09-09T09:09:13;20.60;99.90
43185;DHT22;28803;52.308;19.096;2022-09-09T09:11:56;20.80;99.90
43185;DHT22;28803;52.308;19.096;2022-09-09T09:14:32;21.10;99.90
43185;DHT22;28803;52.308;19.096;2022-09-09T09:17:06;21.30;99.90
43185;DHT22;28803;52.308;19.096;2022-09-09T09:19:39;21.20;99.90
43185;DHT22;28803;52.308;19.096;2022-09-09T09:22:24;21.10;99.90
43185;DHT22;28803;52.308;19.096;2022-09-09T09:25:16;21.00;99.90
43185;DHT22;28803;52.308;19.096;2022-09-09T09:30:42;21.70;99.90
43185;DHT22;28803;52.308;19.096;2022-09-09T09:36:08;27.30;99.40
43185;DHT22;28803;52.308;19.096;2022-09-09T09:38:37;28.50;95.20
43185;DHT22;28803;52.308;19.096;2022-09-09T09:41:36;30.20;90.90
43185;DHT22;28803;52.308;19.096;2022-09-09T09:44:28;32.40;78.50
43185;DHT22;28803;52.308;19.096;2022-09-09T09:47:23;33.50;70.00
43185;DHT22;28803;52.308;19.096;2022-09-09T09:49:58;31.50;70.50
43185;DHT22;28803;52.308;19.096;2022-09-09T09:52:28;29.30;76.70
43185;DHT22;28803;52.308;19.096;2022-09-09T09:54:58;27.80;82.30
43185;DHT22;28803;52.308;19.096;2022-09-09T09:57:33;26.70;87.20
43185;DHT22;28803;52.308;19.096;2022-09-09T10:00:12;25.90;91.80
43185;DHT22;28803;52.308;19.096;2022-09-09T10:02:42;25.00;92.90
43185;DHT22;28803;52.308;19.096;2022-09-09T10:05:19;24.40;96.40
43185;DHT22;28803;52.308;19.096;2022-09-09T10:10:46;23.70;99.90
43185;DHT22;28803;52.308;19.096;2022-09-09T10:13:37;23.50;99.90
43185;DHT22;28803;52.308;19.096;2022-09-09T10:19:03;23.40;99.90
43185;DHT22;28803;52.308;19.096;2022-09-09T10:30:07;24.40;99.40
43185;DHT22;28803;52.308;19.096;2022-09-09T10:37:48;24.30;99.90
43185;DHT22;28803;52.308;19.096;2022-09-09T10:41:13;24.20;99.90
43185;DHT22;28803;52.308;19.096;2022-09-09T10:54:57;23.60;99.90
43185;DHT22;28803;52.308;19.096;2022-09-09T10:57:36;23.70;99.90
43185;DHT22;28803;52.308;19.096;2022-09-09T11:00:18;23.80;99.90
43185;DHT22;28803;52.308;19.096;2022-09-09T11:03:02;23.70;99.90
43185;DHT22;28803;52.308;19.096;2022-09-09T11:05:41;23.50;99.90
43185;DHT22;28803;52.308;19.096;2022-09-09T11:08:21;23.30;99.90
43185;DHT22;28803;52.308;19.096;2022-09-09T11:11:20;23.30;99.90
43185;DHT22;28803;52.308;19.096;2022-09-09T11:16:45;23.30;99.90
43185;DHT22;28803;52.308;19.096;2022-09-09T11:19:35;23.60;99.90
43185;DHT22;28803;52.308;19.096;2022-09-09T11:24:49;23.90;99.90
43185;DHT22;28803;52.308;19.096;2022-09-09T11:27:29;24.00;99.90
43185;DHT22;28803;52.308;19.096;2022-09-09T11:30:34;24.00;99.50
43185;DHT22;28803;52.308;19.096;2022-09-09T11:38:44;23.70;99.90
43185;DHT22;28803;52.308;19.096;2022-09-09T11:41:14;23.70;99.90
43185;DHT22;28803;52.308;19.096;2022-09-09T11:43:52;23.60;99.90
43185;DHT22;28803;52.308;19.096;2022-09-09T11:46:21;23.50;99.90
43185;DHT22;28803;52.308;19.096;2022-09-09T11:49:05;23.60;99.90
43185;DHT22;28803;52.308;19.096;2022-09-09T11:51:33;23.90;99.90
43185;DHT22;28803;52.308;19.096;2022-09-09T11:54:27;24.10;99.90
43185;DHT22;28803;52.308;19.096;2022-09-09T11:56:56;24.30;99.90
43185;DHT22;28803;52.308;19.096;2022-09-09T11:59:26;25.70;99.90
43185;DHT22;28803;52.308;19.096;2022-09-09T12:02:03;24.10;98.90
43185;DHT22;28803;52.308;19.096;2022-09-09T12:04:41;23.60;99.20
43185;DHT22;28803;52.308;19.096;2022-09-09T12:15:00;23.10;99.90
43185;DHT22;28803;52.308;19.096;2022-09-09T12:17:31;23.20;99.90
43185;DHT22;28803;52.308;19.096;2022-09-09T12:22:54;23.50;99.90
43185;DHT22;28803;52.308;19.096;2022-09-09T12:31:24;23.20;99.90
43185;DHT22;28803;52.308;19.096;2022-09-09T12:33:52;23.20;99.90
43185;DHT22;28803;52.308;19.096;2022-09-09T12:36:23;23.30;99.90
43185;DHT22;28803;52.308;19.096;2022-09-09T12:38:51;23.30;99.90
43185;DHT22;28803;52.308;19.096;2022-09-09T12:43:48;23.30;99.90
43185;DHT22;28803;52.308;19.096;2022-09-09T12:46:39;23.50;99.90
43185;DHT22;28803;52.308;19.096;2022-09-09T12:49:32;23.60;99.90
43185;DHT22;28803;52.308;19.096;2022-09-09T12:52:02;23.60;99.60
43185;DHT22;28803;52.308;19.096;2022-09-09T12:54:34;23.60;99.10
43185;DHT22;28803;52.308;19.096;2022-09-09T12:57:02;23.60;99.60
43185;DHT22;28803;52.308;19.096;2022-09-09T12:59:38;23.80;99.90
43185;DHT22;28803;52.308;19.096;2022-09-09T13:02:19;23.70;99.70
43185;DHT22;28803;52.308;19.096;2022-09-09T13:04:46;23.70;99.70
43185;DHT22;28803;52.308;19.096;2022-09-09T13:07:13;23.60;99.90
43185;DHT22;28803;52.308;19.096;2022-09-09T13:09:44;23.70;99.60
43185;DHT22;28803;52.308;19.096;2022-09-09T13:12:23;23.60;99.40
43185;DHT22;28803;52.308;19.096;2022-09-09T13:14:54;23.40;99.90
43185;DHT22;28803;52.308;19.096;2022-09-09T13:17:25;23.10;99.90
43185;DHT22;28803;52.308;19.096;2022-09-09T13:19:53;23.00;99.90
43185;DHT22;28803;52.308;19.096;2022-09-09T13:22:33;23.00;99.90
43185;DHT22;28803;52.308;19.096;2022-09-09T13:25:25;23.00;99.90
43185;DHT22;28803;52.308;19.096;2022-09-09T13:30:33;22.70;99.90
43185;DHT22;28803;52.308;19.096;2022-09-09T13:33:20;22.60;99.90
43185;DHT22;28803;52.308;19.096;2022-09-09T13:35:54;22.50;99.90
43185;DHT22;28803;52.308;19.096;2022-09-09T13:38:22;22.20;99.90
43185;DHT22;28803;52.308;19.096;2022-09-09T13:40:55;21.90;99.90
43185;DHT22;28803;52.308;19.096;2022-09-09T13:43:25;21.80;99.90
43185;DHT22;28803;52.308;19.096;2022-09-09T13:45:57;21.60;99.90
43185;DHT22;28803;52.308;19.096;2022-09-09T13:48:26;21.70;99.90
43185;DHT22;28803;52.308;19.096;2022-09-09T13:51:02;21.60;99.90
43185;DHT22;28803;52.308;19.096;2022-09-09T13:53:31;21.60;99.90
43185;DHT22;28803;52.308;19.096;2022-09-09T13:55:59;21.50;99.90
43185;DHT22;28803;52.308;19.096;2022-09-09T13:58:26;21.40;99.90
43185;DHT22;28803;52.308;19.096;2022-09-09T14:00:53;21.40;99.90
43185;DHT22;28803;52.308;19.096;2022-09-09T14:03:21;21.40;99.90
43185;DHT22;28803;52.308;19.096;2022-09-09T14:05:48;21.30;99.90
43185;DHT22;28803;52.308;19.096;2022-09-09T14:08:26;21.10;99.90
43185;DHT22;28803;52.308;19.096;2022-09-09T14:10:53;20.90;99.90
43185;DHT22;28803;52.308;19.096;2022-09-09T14:13:23;20.70;99.90
43185;DHT22;28803;52.308;19.096;2022-09-09T14:15:49;20.60;99.90
43185;DHT22;28803;52.308;19.096;2022-09-09T14:18:16;20.60;99.90
43185;DHT22;28803;52.308;19.096;2022-09-09T14:20:44;20.60;99.90
43185;DHT22;28803;52.308;19.096;2022-09-09T14:23:12;20.70;99.90
43185;DHT22;28803;52.308;19.096;2022-09-09T14:25:40;20.60;99.90
43185;DHT22;28803;52.308;19.096;2022-09-09T14:28:10;20.80;99.90
43185;DHT22;28803;52.308;19.096;2022-09-09T14:30:39;20.90;99.90
43185;DHT22;28803;52.308;19.096;2022-09-09T14:33:08;21.00;99.90
43185;DHT22;28803;52.308;19.096;2022-09-09T14:35:36;21.00;99.90
43185;DHT22;28803;52.308;19.096;2022-09-09T14:38:04;20.90;99.90
43185;DHT22;28803;52.308;19.096;2022-09-09T14:40:31;21.00;99.90
43185;DHT22;28803;52.308;19.096;2022-09-09T14:42:58;20.90;99.90
43185;DHT22;28803;52.308;19.096;2022-09-09T14:45:26;21.00;99.90
43185;DHT22;28803;52.308;19.096;2022-09-09T14:47:53;20.80;99.90
43185;DHT22;28803;52.308;19.096;2022-09-09T14:50:21;20.70;99.90
43185;DHT22;28803;52.308;19.096;2022-09-09T14:52:48;20.60;99.90
43185;DHT22;28803;52.308;19.096;2022-09-09T14:55:15;20.60;99.90
43185;DHT22;28803;52.308;19.096;2022-09-09T14:57:43;20.70;99.90
43185;DHT22;28803;52.308;19.096;2022-09-09T15:00:10;20.80;99.90
43185;DHT22;28803;52.308;19.096;2022-09-09T15:02:38;20.90;99.90
43185;DHT22;28803;52.308;19.096;2022-09-09T15:05:06;20.90;99.90
43185;DHT22;28803;52.308;19.096;2022-09-09T15:07:33;21.10;99.90
43185;DHT22;28803;52.308;19.096;2022-09-09T15:10:00;21.10;99.90
43185;DHT22;28803;52.308;19.096;2022-09-09T15:12:28;21.10;99.90
43185;DHT22;28803;52.308;19.096;2022-09-09T15:14:55;21.00;99.90
43185;DHT22;28803;52.308;19.096;2022-09-09T15:17:22;20.90;99.90
43185;DHT22;28803;52.308;19.096;2022-09-09T15:19:54;20.80;99.90
43185;DHT22;28803;52.308;19.096;2022-09-09T15:22:21;20.70;99.90
43185;DHT22;28803;52.308;19.096;2022-09-09T15:24:49;20.70;99.90
43185;DHT22;28803;52.308;19.096;2022-09-09T15:27:16;20.60;99.90
43185;DHT22;28803;52.308;19.096;2022-09-09T15:29:44;20.60;99.90
43185;DHT22;28803;52.308;19.096;2022-09-09T15:32:12;20.50;99.90
43185;DHT22;28803;52.308;19.096;2022-09-09T15:34:39;20.40;99.90
43185;DHT22;28803;52.308;19.096;2022-09-09T15:37:06;20.30;99.90
43185;DHT22;28803;52.308;19.096;2022-09-09T15:39:33;20.10;99.90
43185;DHT22;28803;52.308;19.096;2022-09-09T15:42:05;19.80;99.90
43185;DHT22;28803;52.308;19.096;2022-09-09T15:44:40;19.70;99.90
43185;DHT22;28803;52.308;19.096;2022-09-09T15:47:11;19.50;99.90
43185;DHT22;28803;52.308;19.096;2022-09-09T15:49:39;19.40;99.90
43185;DHT22;28803;52.308;19.096;2022-09-09T15:52:06;19.30;99.90
43185;DHT22;28803;52.308;19.096;2022-09-09T15:54:35;19.10;99.90
43185;DHT22;28803;52.308;19.096;2022-09-09T15:57:07;19.00;99.90
43185;DHT22;28803;52.308;19.096;2022-09-09T15:59:35;18.90;99.90
43185;DHT22;28803;52.308;19.096;2022-09-09T16:02:02;18.90;99.90
43185;DHT22;28803;52.308;19.096;2022-09-09T16:04:29;18.80;99.90
43185;DHT22;28803;52.308;19.096;2022-09-09T16:07:03;18.80;99.90
43185;DHT22;28803;52.308;19.096;2022-09-09T16:09:31;18.70;99.90
43185;DHT22;28803;52.308;19.096;2022-09-09T16:12:00;18.60;99.90
43185;DHT22;28803;52.308;19.096;2022-09-09T16:14:29;18.50;99.90
43185;DHT22;28803;52.308;19.096;2022-09-09T16:17:01;18.50;99.90
43185;DHT22;28803;52.308;19.096;2022-09-09T16:19:28;18.40;99.90
43185;DHT22;28803;52.308;19.096;2022-09-09T16:21:55;18.30;99.90
43185;DHT22;28803;52.308;19.096;2022-09-09T16:24:23;18.20;99.90
43185;DHT22;28803;52.308;19.096;2022-09-09T16:26:53;18.10;99.90
43185;DHT22;28803;52.308;19.096;2022-09-09T16:29:21;18.00;99.90
43185;DHT22;28803;52.308;19.096;2022-09-09T16:31:50;17.90;99.90
43185;DHT22;28803;52.308;19.096;2022-09-09T16:34:17;17.90;99.90
43185;DHT22;28803;52.308;19.096;2022-09-09T16:36:46;17.60;99.90
43185;DHT22;28803;52.308;19.096;2022-09-09T16:39:16;17.70;99.90
43185;DHT22;28803;52.308;19.096;2022-09-09T16:41:45;17.60;99.90
43185;DHT22;28803;52.308;19.096;2022-09-09T16:44:13;17.50;99.90
43185;DHT22;28803;52.308;19.096;2022-09-09T16:46:43;17.40;99.90
43185;DHT22;28803;52.308;19.096;2022-09-09T16:49:13;17.30;99.90
43185;DHT22;28803;52.308;19.096;2022-09-09T16:51:47;17.30;99.90
43185;DHT22;28803;52.308;19.096;2022-09-09T16:54:14;17.20;99.90
43185;DHT22;28803;52.308;19.096;2022-09-09T16:56:44;17.20;99.90
43185;DHT22;28803;52.308;19.096;2022-09-09T16:59:17;17.10;99.90
43185;DHT22;28803;52.308;19.096;2022-09-09T17:01:46;17.00;99.90
43185;DHT22;28803;52.308;19.096;2022-09-09T17:04:15;16.90;99.90
43185;DHT22;28803;52.308;19.096;2022-09-09T17:06:52;16.80;99.90
43185;DHT22;28803;52.308;19.096;2022-09-09T17:09:20;16.70;99.90
43185;DHT22;28803;52.308;19.096;2022-09-09T17:11:48;16.60;99.90
43185;DHT22;28803;52.308;19.096;2022-09-09T17:14:18;16.60;99.90
43185;DHT22;28803;52.308;19.096;2022-09-09T17:16:46;16.50;99.90
43185;DHT22;28803;52.308;19.096;2022-09-09T17:19:14;16.40;99.90
43185;DHT22;28803;52.308;19.096;2022-09-09T17:21:41;16.40;99.90
43185;DHT22;28803;52.308;19.096;2022-09-09T17:24:28;16.30;99.90
43185;DHT22;28803;52.308;19.096;2022-09-09T17:26:56;16.30;99.90
43185;DHT22;28803;52.308;19.096;2022-09-09T17:29:24;16.20;99.90
43185;DHT22;28803;52.308;19.096;2022-09-09T17:31:52;16.20;99.90
43185;DHT22;28803;52.308;19.096;2022-09-09T17:34:19;16.10;99.90
43185;DHT22;28803;52.308;19.096;2022-09-09T17:36:45;16.10;99.90
43185;DHT22;28803;52.308;19.096;2022-09-09T17:39:13;16.00;99.90
43185;DHT22;28803;52.308;19.096;2022-09-09T17:41:40;15.90;99.90
43185;DHT22;28803;52.308;19.096;2022-09-09T17:44:07;15.80;99.90
43185;DHT22;28803;52.308;19.096;2022-09-09T17:46:42;15.80;99.90
43185;DHT22;28803;52.308;19.096;2022-09-09T17:49:12;15.70;99.90
43185;DHT22;28803;52.308;19.096;2022-09-09T17:51:41;15.60;99.90
43185;DHT22;28803;52.308;19.096;2022-09-09T17:54:16;15.60;99.90
43185;DHT22;28803;52.308;19.096;2022-09-09T17:56:46;15.60;99.90
43185;DHT22;28803;52.308;19.096;2022-09-09T17:59:15;16.60;99.90